createdAt,value
2019-03-20T00:00:13.998Z,1.00
2019-03-20T00:02:42.606Z,1.00
2019-03-20T00:05:11.318Z,0.90
2019-03-20T00:07:39.839Z,0.90
2019-03-20T00:10:10.560Z,0.90
2019-03-20T00:12:39.488Z,0.90
2019-03-20T00:15:13.194Z,0.90
2019-03-20T00:17:41.819Z,0.90
2019-03-20T00:23:38.710Z,0.90
2019-03-20T00:26:07.394Z,0.90
2019-03-20T00:28:36.092Z,0.90
2019-03-20T00:31:04.659Z,0.90
2019-03-20T00:33:33.270Z,0.90
2019-03-20T00:36:01.928Z,0.90
2019-03-20T00:38:30.539Z,0.90
2019-03-20T00:40:59.087Z,0.90
2019-03-20T00:46:55.810Z,0.80
2019-03-20T00:49:24.355Z,0.80
2019-03-20T00:51:52.887Z,0.80
2019-03-20T00:54:21.488Z,0.80
2019-03-20T00:56:50.187Z,0.80
2019-03-20T00:59:18.821Z,0.80
2019-03-20T01:01:47.414Z,0.80
2019-03-20T01:04:16.106Z,0.80
2019-03-20T01:06:44.651Z,0.80
2019-03-20T01:09:13.253Z,0.80
2019-03-20T01:11:41.775Z,0.70
2019-03-20T01:14:10.345Z,0.70
2019-03-20T01:16:38.942Z,0.80
2019-03-20T01:19:07.492Z,0.80
2019-03-20T01:25:08.141Z,0.80
2019-03-20T01:27:36.716Z,0.80
2019-03-20T01:30:32.261Z,0.80
2019-03-20T01:33:02.283Z,0.70
2019-03-20T01:35:30.960Z,0.80
2019-03-20T01:37:59.554Z,0.80
2019-03-20T01:40:29.416Z,0.80
2019-03-20T01:42:58.333Z,0.80
2019-03-20T01:45:27.066Z,0.80
2019-03-20T01:47:56.450Z,0.80
2019-03-20T01:50:25.232Z,0.80
2019-03-20T01:56:34.663Z,0.80
2019-03-20T01:59:03.417Z,0.80
2019-03-20T02:01:32.199Z,0.80
2019-03-20T02:04:00.871Z,0.80
2019-03-20T02:06:29.535Z,0.80
2019-03-20T02:08:58.262Z,0.80
2019-03-20T02:11:26.935Z,0.80
2019-03-20T02:13:55.603Z,0.80
2019-03-20T02:16:24.218Z,0.80
2019-03-20T02:18:52.826Z,0.80
2019-03-20T02:21:21.357Z,0.70
2019-03-20T02:23:50.090Z,0.80
2019-03-20T02:26:18.668Z,0.80
2019-03-20T02:28:47.182Z,0.80
2019-03-20T02:31:17.477Z,0.80
2019-03-20T02:33:46.025Z,0.80
2019-03-20T02:36:14.643Z,0.90
2019-03-20T02:38:43.263Z,0.90
2019-03-20T02:41:11.906Z,0.90
2019-03-20T02:43:40.504Z,0.90
2019-03-20T02:46:10.556Z,1.00
2019-03-20T02:48:39.101Z,1.00
2019-03-20T02:51:07.704Z,1.00
2019-03-20T02:53:36.356Z,1.10
2019-03-20T02:56:05.012Z,1.00
2019-03-20T02:58:33.722Z,1.10
2019-03-20T03:01:02.331Z,1.10
2019-03-20T03:03:30.993Z,1.10
2019-03-20T03:06:06.695Z,1.10
2019-03-20T03:08:30.207Z,1.10
2019-03-20T03:10:58.816Z,1.00
2019-03-20T03:17:08.383Z,1.00
2019-03-20T03:19:37.231Z,1.00
2019-03-20T03:22:05.810Z,1.00
2019-03-20T03:24:34.367Z,1.00
2019-03-20T03:27:03.138Z,1.00
2019-03-20T03:29:31.722Z,1.00
2019-03-20T03:32:00.274Z,1.00
2019-03-20T03:34:29.165Z,1.00
2019-03-20T03:36:59.533Z,1.00
2019-03-20T03:39:34.199Z,1.00
2019-03-20T03:42:02.818Z,1.00
2019-03-20T03:44:31.321Z,0.90
2019-03-20T03:46:59.910Z,1.00
2019-03-20T03:49:28.456Z,1.00
2019-03-20T03:51:56.986Z,1.00
2019-03-20T03:57:54.697Z,1.10
2019-03-20T04:00:23.354Z,1.10
2019-03-20T04:02:51.890Z,1.10
2019-03-20T04:05:20.471Z,1.20
2019-03-20T04:07:49.059Z,1.20
2019-03-20T04:10:18.411Z,1.20
2019-03-20T04:12:47.184Z,1.20
2019-03-20T04:15:16.814Z,1.20
2019-03-20T04:17:45.562Z,1.30
2019-03-20T04:20:19.401Z,1.30
2019-03-20T04:22:48.194Z,1.30
2019-03-20T04:28:20.773Z,1.30
2019-03-20T04:30:49.396Z,1.30
2019-03-20T04:33:17.994Z,1.40
2019-03-20T04:35:46.581Z,1.40
2019-03-20T04:38:15.048Z,1.40
2019-03-20T04:40:43.954Z,1.40
2019-03-20T04:43:12.496Z,1.40
2019-03-20T04:45:41.465Z,1.40
2019-03-20T04:48:10.044Z,1.40
2019-03-20T04:50:38.560Z,1.40
2019-03-20T04:53:07.068Z,1.40
2019-03-20T04:59:03.622Z,1.40
2019-03-20T05:01:32.217Z,1.40
2019-03-20T05:04:00.789Z,1.40
2019-03-20T05:06:29.325Z,1.40
2019-03-20T05:08:57.844Z,1.30
2019-03-20T05:11:26.403Z,1.30
2019-03-20T05:13:54.894Z,1.30
2019-03-20T05:16:23.446Z,1.30
2019-03-20T05:18:51.969Z,1.30
2019-03-20T05:21:20.485Z,1.20
2019-03-20T05:23:48.994Z,1.20
2019-03-20T05:26:17.527Z,1.20
2019-03-20T05:28:46.080Z,1.20
2019-03-20T05:31:14.765Z,1.20
2019-03-20T05:36:47.417Z,1.20
2019-03-20T05:39:16.040Z,1.20
2019-03-20T05:41:44.637Z,1.10
2019-03-20T05:47:41.189Z,1.10
2019-03-20T05:50:12.250Z,1.20
2019-03-20T05:52:40.876Z,1.20
2019-03-20T05:58:38.752Z,1.20
2019-03-20T06:01:07.336Z,1.20
2019-03-20T06:03:35.847Z,1.20
2019-03-20T06:09:45.655Z,1.20
2019-03-20T06:12:14.156Z,1.30
2019-03-20T06:14:42.631Z,1.40
2019-03-20T06:17:11.148Z,1.40
2019-03-20T06:19:40.002Z,1.50
2019-03-20T06:22:08.558Z,1.50
2019-03-20T06:24:37.085Z,1.50
2019-03-20T06:27:07.522Z,1.60
2019-03-20T06:29:35.803Z,1.70
2019-03-20T06:35:33.181Z,1.90
2019-03-20T06:38:01.740Z,2.10
2019-03-20T06:40:30.281Z,2.20
2019-03-20T06:46:27.321Z,2.50
2019-03-20T06:52:24.358Z,2.70
2019-03-20T06:54:52.828Z,2.90
2019-03-20T06:57:22.841Z,3.10
2019-03-20T06:59:54.450Z,3.30
2019-03-20T07:02:23.565Z,3.60
2019-03-20T07:04:55.197Z,3.80
2019-03-20T07:11:08.195Z,4.30
2019-03-20T07:13:36.846Z,4.60
2019-03-20T07:16:05.877Z,4.70
2019-03-20T07:18:34.590Z,4.90
2019-03-20T07:21:03.278Z,5.10
2019-03-20T07:23:31.830Z,5.20
2019-03-20T07:26:01.991Z,5.40
2019-03-20T07:28:30.558Z,5.50
2019-03-20T07:34:27.313Z,5.80
2019-03-20T07:36:56.518Z,6.00
2019-03-20T07:39:25.043Z,6.20
2019-03-20T07:41:53.629Z,6.30
2019-03-20T07:44:22.126Z,6.40
2019-03-20T07:46:50.605Z,6.50
2019-03-20T07:49:19.835Z,6.50
2019-03-20T07:51:50.285Z,6.60
2019-03-20T07:54:18.820Z,6.70
2019-03-20T07:56:47.352Z,6.80
2019-03-20T07:59:15.837Z,6.90
2019-03-20T08:01:44.341Z,7.00
2019-03-20T08:04:12.919Z,7.10
2019-03-20T08:06:41.453Z,7.30
2019-03-20T08:09:09.937Z,7.40
2019-03-20T08:11:38.423Z,7.50
2019-03-20T08:14:06.963Z,7.60
2019-03-20T08:16:37.187Z,7.70
2019-03-20T08:19:05.741Z,7.80
2019-03-20T08:21:34.260Z,7.90
2019-03-20T08:27:31.916Z,8.00
2019-03-20T08:33:42.102Z,8.00
2019-03-20T08:36:10.609Z,8.00
2019-03-20T08:38:39.104Z,8.00
2019-03-20T08:41:07.565Z,8.00
2019-03-20T08:43:36.092Z,8.00
2019-03-20T08:46:04.713Z,8.00
2019-03-20T08:52:02.114Z,8.00
2019-03-20T08:54:30.597Z,8.00
2019-03-20T08:56:59.138Z,8.00
2019-03-20T08:59:28.427Z,8.10
2019-03-20T09:01:56.918Z,8.10
2019-03-20T09:04:25.403Z,8.10
2019-03-20T09:06:55.438Z,8.20
2019-03-20T09:09:23.903Z,8.30
2019-03-20T09:11:52.502Z,8.40
2019-03-20T09:14:20.986Z,8.40
2019-03-20T09:16:49.963Z,8.50
2019-03-20T09:19:18.548Z,8.50
2019-03-20T09:21:47.083Z,8.60
2019-03-20T09:24:15.607Z,8.60
2019-03-20T09:26:44.071Z,8.60
2019-03-20T09:29:18.663Z,8.60
2019-03-20T09:31:43.065Z,8.70
2019-03-20T09:34:11.573Z,8.70
2019-03-20T09:36:43.311Z,8.70
2019-03-20T09:39:10.364Z,8.80
2019-03-20T09:41:38.927Z,8.90
2019-03-20T09:44:07.386Z,9.00
2019-03-20T09:46:36.626Z,9.10
2019-03-20T09:49:06.739Z,9.10
2019-03-20T09:51:35.222Z,9.20
2019-03-20T09:54:03.748Z,9.30
2019-03-20T09:56:32.243Z,9.40
2019-03-20T09:59:03.476Z,9.40
2019-03-20T10:01:32.035Z,9.40
2019-03-20T10:04:00.514Z,9.50
2019-03-20T10:06:30.259Z,9.50
2019-03-20T10:08:59.001Z,9.50
2019-03-20T10:11:27.506Z,9.60
2019-03-20T10:13:56.000Z,9.60
2019-03-20T10:16:24.478Z,9.50
2019-03-20T10:22:08.560Z,9.50
2019-03-20T10:24:37.102Z,9.60
2019-03-20T10:27:05.581Z,9.70
2019-03-20T10:29:34.064Z,9.70
2019-03-20T10:32:02.539Z,9.80
2019-03-20T10:34:39.172Z,9.90
2019-03-20T10:37:01.382Z,10.00
2019-03-20T10:39:29.832Z,10.10
2019-03-20T10:41:58.296Z,10.20
2019-03-20T10:44:26.797Z,10.20
2019-03-20T10:46:55.264Z,10.30
2019-03-20T10:49:23.757Z,10.30
2019-03-20T10:51:53.304Z,10.20
2019-03-20T10:54:21.831Z,10.20
2019-03-20T10:56:50.302Z,10.20
2019-03-20T10:59:18.815Z,10.10
2019-03-20T11:01:47.301Z,10.00
2019-03-20T11:04:15.956Z,10.00
2019-03-20T11:10:26.647Z,10.00
2019-03-20T11:12:56.508Z,9.90
2019-03-20T11:18:29.894Z,9.90
2019-03-20T11:20:58.394Z,9.90
2019-03-20T11:23:27.239Z,9.90
2019-03-20T11:25:55.736Z,9.90
2019-03-20T11:28:24.245Z,9.90
2019-03-20T11:30:52.775Z,9.90
2019-03-20T11:33:21.282Z,9.90
2019-03-20T11:35:49.906Z,9.90
2019-03-20T11:38:18.462Z,10.00
2019-03-20T11:40:48.058Z,10.00
2019-03-20T11:43:17.523Z,10.00
2019-03-20T11:45:46.014Z,10.00
2019-03-20T11:48:14.559Z,10.00
2019-03-20T11:50:44.383Z,10.00
2019-03-20T11:53:12.880Z,10.10
2019-03-20T11:55:44.344Z,10.10
2019-03-20T11:58:13.427Z,10.10
2019-03-20T12:00:41.915Z,10.10
2019-03-20T12:03:10.388Z,10.20
2019-03-20T12:05:39.909Z,10.10
2019-03-20T12:08:09.981Z,10.10
2019-03-20T12:10:38.458Z,10.10
2019-03-20T12:13:08.221Z,10.10
2019-03-20T12:15:36.692Z,10.10
2019-03-20T12:18:05.246Z,10.10
2019-03-20T12:20:33.787Z,10.20
2019-03-20T12:23:02.288Z,10.20
2019-03-20T12:25:37.881Z,10.10
2019-03-20T12:28:06.624Z,10.20
2019-03-20T12:30:38.268Z,10.10
2019-03-20T12:33:06.793Z,10.20
2019-03-20T12:35:37.630Z,10.20
2019-03-20T12:38:14.472Z,10.20
2019-03-20T12:40:37.986Z,10.20
2019-03-20T12:43:06.895Z,10.20
2019-03-20T12:45:39.206Z,10.20
2019-03-20T12:48:09.130Z,10.30
2019-03-20T12:54:06.787Z,10.30
2019-03-20T12:56:35.330Z,10.30
2019-03-20T12:59:03.855Z,10.30
2019-03-20T13:01:32.336Z,10.30
2019-03-20T13:04:01.272Z,10.40
2019-03-20T13:06:31.903Z,10.40
2019-03-20T13:09:00.366Z,10.50
2019-03-20T13:11:28.870Z,10.50
2019-03-20T13:13:57.378Z,10.50
2019-03-20T13:16:27.311Z,10.40
2019-03-20T13:18:56.143Z,10.40
2019-03-20T13:21:24.619Z,10.40
2019-03-20T13:23:53.328Z,10.30
2019-03-20T13:26:21.864Z,10.40
2019-03-20T13:28:50.350Z,10.40
2019-03-20T13:31:21.811Z,10.30
2019-03-20T13:33:50.392Z,10.30
2019-03-20T13:36:18.949Z,10.40
2019-03-20T13:38:47.681Z,10.30
2019-03-20T13:41:16.196Z,10.40
2019-03-20T13:43:46.652Z,10.40
2019-03-20T13:46:14.997Z,10.40
2019-03-20T13:48:43.547Z,10.30
2019-03-20T13:51:12.136Z,10.40
2019-03-20T13:53:40.768Z,10.40
2019-03-20T13:56:09.279Z,10.30
2019-03-20T13:58:38.437Z,10.30
2019-03-20T14:01:07.058Z,10.30
2019-03-20T14:03:35.809Z,10.30
2019-03-20T14:06:04.442Z,10.30
2019-03-20T14:12:02.752Z,10.30
2019-03-20T14:14:31.349Z,10.30
2019-03-20T14:16:59.831Z,10.30
2019-03-20T14:19:28.351Z,10.30
2019-03-20T14:21:56.851Z,10.30
2019-03-20T14:24:25.379Z,10.30
2019-03-20T14:26:55.566Z,10.30
2019-03-20T14:29:24.130Z,10.30
2019-03-20T14:31:52.711Z,10.30
2019-03-20T14:38:02.038Z,10.30
2019-03-20T14:40:36.585Z,10.30
2019-03-20T14:43:05.720Z,10.20
2019-03-20T14:45:34.372Z,10.20
2019-03-20T14:48:02.913Z,10.20
2019-03-20T14:50:32.548Z,10.30
2019-03-20T14:53:01.026Z,10.20
2019-03-20T14:55:29.770Z,10.30
2019-03-20T14:57:58.241Z,10.20
2019-03-20T15:00:31.521Z,10.20
2019-03-20T15:03:00.579Z,10.20
2019-03-20T15:05:29.069Z,10.20
2019-03-20T15:07:57.576Z,10.20
2019-03-20T15:10:28.414Z,10.20
2019-03-20T15:12:57.150Z,10.20
2019-03-20T15:15:40.509Z,10.20
2019-03-20T15:18:10.644Z,10.20
2019-03-20T15:20:39.263Z,10.20
2019-03-20T15:23:07.859Z,10.20
2019-03-20T15:25:36.498Z,10.20
2019-03-20T15:28:04.975Z,10.20
2019-03-20T15:30:33.570Z,10.20
2019-03-20T15:33:02.176Z,10.20
2019-03-20T15:35:32.026Z,10.20
2019-03-20T15:38:01.253Z,10.20
2019-03-20T15:44:02.385Z,10.20
2019-03-20T15:46:32.223Z,10.20
2019-03-20T15:49:01.000Z,10.20
2019-03-20T15:54:58.922Z,10.20
2019-03-20T15:57:27.432Z,10.20
2019-03-20T15:59:56.154Z,10.20
2019-03-20T16:02:24.634Z,10.20
2019-03-20T16:04:53.132Z,10.30
2019-03-20T16:07:21.648Z,10.20
2019-03-20T16:09:50.178Z,10.20
2019-03-20T16:12:22.500Z,10.20
2019-03-20T16:14:50.774Z,10.30
2019-03-20T16:17:19.276Z,10.30
2019-03-20T16:19:47.772Z,10.30
2019-03-20T16:22:16.277Z,10.30
2019-03-20T16:24:44.800Z,10.20
2019-03-20T16:27:13.328Z,10.20
2019-03-20T16:29:41.854Z,10.20
2019-03-20T16:32:10.324Z,10.20
2019-03-20T16:34:38.875Z,10.20
2019-03-20T16:37:07.360Z,10.20
2019-03-20T16:39:35.864Z,10.20
2019-03-20T16:42:04.413Z,10.20
2019-03-20T16:44:32.990Z,10.20
2019-03-20T16:50:30.849Z,10.20
2019-03-20T16:52:59.351Z,10.10
2019-03-20T16:55:27.813Z,10.10
2019-03-20T16:57:58.187Z,10.10
2019-03-20T17:00:29.907Z,10.10
2019-03-20T17:02:58.450Z,10.00
2019-03-20T17:05:28.003Z,10.00
2019-03-20T17:11:01.355Z,10.00
2019-03-20T17:13:29.846Z,10.00
2019-03-20T17:15:58.945Z,9.90
2019-03-20T17:22:08.205Z,9.90
2019-03-20T17:24:36.687Z,9.80
2019-03-20T17:27:05.268Z,9.80
2019-03-20T17:29:34.191Z,9.80
2019-03-20T17:32:03.082Z,9.80
2019-03-20T17:34:31.572Z,9.70
2019-03-20T17:37:08.803Z,9.70
2019-03-20T17:39:37.373Z,9.70
2019-03-20T17:42:05.902Z,9.70
2019-03-20T17:44:34.411Z,9.70
2019-03-20T17:47:02.983Z,9.70
2019-03-20T17:49:33.154Z,9.70
2019-03-20T17:52:03.111Z,9.70
2019-03-20T17:54:31.591Z,9.70
2019-03-20T18:00:34.200Z,9.60
2019-03-20T18:06:31.582Z,9.70
2019-03-20T18:09:00.463Z,9.70
2019-03-20T18:11:29.041Z,9.70
2019-03-20T18:13:59.161Z,9.70
2019-03-20T18:16:27.624Z,9.70
2019-03-20T18:18:56.135Z,9.70
2019-03-20T18:21:24.628Z,9.70
2019-03-20T18:23:56.514Z,9.70
2019-03-20T18:26:25.034Z,9.70
2019-03-20T18:28:53.537Z,9.70
2019-03-20T18:31:22.499Z,9.70
2019-03-20T18:33:50.998Z,9.70
2019-03-20T18:36:19.516Z,9.70
2019-03-20T18:42:16.706Z,9.70
2019-03-20T18:44:45.345Z,9.70
2019-03-20T18:47:13.931Z,9.70
2019-03-20T18:49:49.695Z,9.70
2019-03-20T18:55:49.641Z,9.70
2019-03-20T18:58:18.198Z,9.70
2019-03-20T19:00:46.793Z,9.70
2019-03-20T19:03:21.208Z,9.70
2019-03-20T19:06:11.070Z,9.70
2019-03-20T19:08:39.624Z,9.70
2019-03-20T19:11:10.547Z,9.70
2019-03-20T19:13:43.406Z,9.70
2019-03-20T19:16:12.220Z,9.70
2019-03-20T19:18:40.807Z,9.70
2019-03-20T19:21:09.463Z,9.70
2019-03-20T19:23:37.966Z,9.70
2019-03-20T19:26:07.208Z,9.70
2019-03-20T19:28:35.723Z,9.70
2019-03-20T19:31:05.239Z,9.70
2019-03-20T19:33:33.699Z,9.70
2019-03-20T19:36:02.183Z,9.70
2019-03-20T19:38:34.948Z,9.70
2019-03-20T19:41:00.919Z,9.70
2019-03-20T19:43:29.413Z,9.60
2019-03-20T19:45:58.243Z,9.70
2019-03-20T19:48:29.403Z,9.60
2019-03-20T19:50:57.237Z,9.70
2019-03-20T19:53:25.737Z,9.60
2019-03-20T19:55:54.253Z,9.60
2019-03-20T19:58:22.845Z,9.70
2019-03-20T20:00:51.426Z,9.60
2019-03-20T20:03:19.996Z,9.70
2019-03-20T20:05:48.497Z,9.70
2019-03-20T20:08:17.389Z,9.60
2019-03-20T20:10:46.122Z,9.60
2019-03-20T20:13:14.756Z,9.60
2019-03-20T20:15:43.252Z,9.70
2019-03-20T20:18:11.794Z,9.70
2019-03-20T20:20:40.759Z,9.60
2019-03-20T20:23:09.264Z,9.60
2019-03-20T20:25:38.123Z,9.70
2019-03-20T20:28:06.644Z,9.60
2019-03-20T20:30:35.141Z,9.60
2019-03-20T20:33:03.662Z,9.60
2019-03-20T20:35:32.222Z,9.60
2019-03-20T20:38:00.735Z,9.60
2019-03-20T20:40:32.652Z,9.60
2019-03-20T20:43:01.283Z,9.60
2019-03-20T20:45:29.846Z,9.60
2019-03-20T20:47:58.361Z,9.60
2019-03-20T20:50:27.019Z,9.60
2019-03-20T20:52:55.523Z,9.60
2019-03-20T20:55:24.770Z,9.60
2019-03-20T20:57:53.654Z,9.60
2019-03-20T21:03:50.346Z,9.60
2019-03-20T21:06:18.833Z,9.60
2019-03-20T21:08:47.322Z,9.60
2019-03-20T21:11:15.824Z,9.60
2019-03-20T21:13:44.288Z,9.60
2019-03-20T21:16:12.863Z,9.60
2019-03-20T21:18:52.474Z,9.50
2019-03-20T21:21:21.126Z,9.50
2019-03-20T21:24:23.683Z,9.50
2019-03-20T21:27:07.289Z,9.50
2019-03-20T21:29:58.735Z,9.50
2019-03-20T21:32:47.141Z,9.50
2019-03-20T21:35:38.420Z,9.50
2019-03-20T21:38:09.959Z,9.50
2019-03-20T21:44:22.289Z,9.50
2019-03-20T21:47:05.827Z,9.50
2019-03-20T21:49:34.291Z,9.50
2019-03-20T21:52:04.048Z,9.50
2019-03-20T21:54:37.683Z,9.50
2019-03-20T21:57:28.808Z,9.50
2019-03-20T22:00:12.060Z,9.50
2019-03-20T22:02:45.259Z,9.50
2019-03-20T22:05:23.278Z,9.50
2019-03-20T22:07:50.680Z,9.50
2019-03-20T22:10:27.948Z,9.50
2019-03-20T22:13:19.004Z,9.50
2019-03-20T22:16:02.956Z,9.50
2019-03-20T22:19:06.174Z,9.50
2019-03-20T22:21:43.190Z,9.50
2019-03-20T22:24:32.720Z,9.50
2019-03-20T22:27:22.043Z,9.50
2019-03-20T22:29:50.571Z,9.50
2019-03-20T22:32:30.970Z,9.50
2019-03-20T22:35:19.943Z,9.50
2019-03-20T22:37:48.398Z,9.50
2019-03-20T22:40:20.024Z,9.50
2019-03-20T22:43:09.062Z,9.50
2019-03-20T22:46:03.199Z,9.50
2019-03-20T22:48:55.213Z,9.50
2019-03-20T22:51:56.694Z,9.50
2019-03-20T22:54:31.182Z,9.50
2019-03-20T22:57:14.236Z,9.50
2019-03-20T22:59:42.738Z,9.50
2019-03-20T23:02:17.234Z,9.50
2019-03-20T23:04:49.494Z,9.50
2019-03-20T23:07:18.097Z,9.50
2019-03-20T23:09:46.750Z,9.50
2019-03-20T23:12:17.778Z,9.50
2019-03-20T23:14:47.023Z,9.50
2019-03-20T23:17:15.572Z,9.50
2019-03-20T23:19:45.200Z,9.50
2019-03-20T23:22:13.785Z,9.50
2019-03-20T23:24:42.547Z,9.50
2019-03-20T23:27:14.123Z,9.50
2019-03-20T23:29:42.681Z,9.50
2019-03-20T23:32:11.237Z,9.50
2019-03-20T23:34:39.732Z,9.50
2019-03-20T23:40:37.457Z,9.50
2019-03-20T23:43:12.152Z,9.50
2019-03-20T23:45:40.635Z,9.50
2019-03-20T23:48:21.320Z,9.50
2019-03-20T23:50:52.907Z,9.50
2019-03-20T23:53:23.082Z,9.50
2019-03-20T23:55:51.870Z,9.60
2019-03-20T23:58:20.381Z,9.50
